West Stockholm, NY (13696)

9:02 AM EDT on July 27, 2016 (GMT -0400)
May Road | | Change Station

Elev 460 ft 44.71 °N, 74.95 °W | Updated 2 minutes ago

Clear
Clear
73.3 °F
Feels Like 73 °F
N
0.0
Wind Variable Wind from North
Gusts 7.0 mph

Today
High -- | Low -- °F
--% Chance of Precip.
Yesterday
High -- | Low -- °F
Precip. -- in
Pressure 29.93 in
Visibility 10.0 miles
Clouds Clear
Heat Index 73 °F
Dew Point 67 °F
Humidity 81%
Rainfall 0.00 in
Snow Depth Not available.
5:40 AM 8:30 PM
Last Quarter, 43% visible
METAR KMSS 271253Z AUTO 23006KT 10SM CLR 23/17 A2993 RMK AO2 SLP134 T02330172
Pressure 29.93 in
Visibility 10.0 miles
Clouds Clear
Heat Index 73 °F
Dew Point 67 °F
Humidity 81%
Rainfall 0.00 in
Snow Depth Not available.
5:40 AM 8:30 PM
Last Quarter, 43% visible
METAR KMSS 271253Z AUTO 23006KT 10SM CLR 23/17 A2993 RMK AO2 SLP134 T02330172

10-Day Weather Forecast

Almanac

Astronomy

Jul. 27, 2016 Rise Set
Actual Time
Civil Twilight
Nautical Twilight
Astronomical Twilight
Moon
Length of Visible Light
Length of Day
Tomorrow will be .
, % of the Moon is Illuminated

Today's Extremes

State Highs State Lows

Community

WunderPhotos

Upload Photos

1,927,842 photos uploaded!

WunderBlog® & News

Nearby

Air Quality

  Air Quality AQ Index Pollutant
Not available.

Snow Depth

Station Depth Elevation

Earthquake Activity

City Distance Mag. Time & Date
Minimum magnitude displayed is 2.5.

Coastal Water Temperatures

Place Temperature

Stations

Nearby Weather Stations

Station Location Temp. Windchill Dew Point Humidity Wind Precip. Elev Updated Type
                   

Watches & Warnings

There are currently no watches in effect.